Time;durP1;ratioP1;P1;durP2;ratioP2;P2;SDS_P1;SDS_P2;PMS_P1;PMS_P2;Temp;Humidity;BMP_temperature;BMP_pressure;BME280_temperature;BME280_humidity;BME280_pressure;Samples;Min_cycle;Max_cycle;Signal;HPM_P1;HPM_P2
2021/05/08 00:00:09;;;;;;;0.10;0.10;;;;;;;3.75;87.67;101788.38;10489167;22;20446;-63
2021/05/08 00:05:11;;;;;;;0.00;0.00;;;;;;;3.72;87.47;101783.25;10497815;28;20020;-63
2021/05/08 00:10:15;;;;;;;0.00;0.00;;;;;;;3.73;88.25;101777.06;10496228;28;20029;-62
2021/05/08 00:15:16;;;;;;;0.00;0.00;;;;;;;3.72;87.75;101777.13;10497908;28;20302;-62
2021/05/08 00:20:16;;;;;;;0.00;0.00;;;;;;;3.73;88.40;101777.06;10497045;28;20021;-64
2021/05/08 00:25:17;;;;;;;0.00;0.00;;;;;;;3.77;87.81;101772.44;10496806;28;20039;-64
2021/05/08 00:30:18;;;;;;;0.00;0.00;;;;;;;3.71;87.40;101775.44;10496911;28;20033;-63
2021/05/08 00:35:18;;;;;;;0.00;0.00;;;;;;;3.67;88.10;101773.94;10496543;28;20032;-63
2021/05/08 00:40:18;;;;;;;0.00;0.00;;;;;;;3.67;88.36;101779.22;10496244;28;20017;-64
2021/05/08 00:45:19;;;;;;;0.00;0.00;;;;;;;3.61;88.56;101769.91;10496260;28;20075;-64
2021/05/08 00:50:20;;;;;;;0.03;0.03;;;;;;;3.60;88.85;101769.03;10495645;28;20024;-64
2021/05/08 00:55:21;;;;;;;0.00;0.00;;;;;;;3.57;88.53;101773.63;10495668;28;20104;-63
2021/05/08 01:00:22;;;;;;;0.00;0.00;;;;;;;3.56;88.95;101770.16;10494949;28;20099;-64
2021/05/08 01:05:23;;;;;;;0.10;0.10;;;;;;;3.53;88.55;101772.97;10495398;28;20671;-64
2021/05/08 01:10:24;;;;;;;0.00;0.00;;;;;;;3.47;88.69;101775.13;10494989;28;20052;-64
2021/05/08 01:15:26;;;;;;;0.10;0.10;;;;;;;3.37;89.83;101777.44;10493615;28;20053;-64
2021/05/08 01:20:26;;;;;;;0.13;0.13;;;;;;;3.33;90.04;101776.75;10494648;28;20016;-64
2021/05/08 01:25:27;;;;;;;0.00;0.00;;;;;;;3.32;90.14;101787.41;10494543;28;20028;-63
2021/05/08 01:30:33;;;;;;;0.10;0.10;;;;;;;3.25;90.24;101791.31;10494726;28;20029;-64
2021/05/08 01:35:35;;;;;;;0.00;0.00;;;;;;;3.11;89.72;101786.81;10492688;28;20028;-63
2021/05/08 01:40:37;;;;;;;0.00;0.00;;;;;;;2.99;90.22;101787.53;10493449;28;20012;-64
2021/05/08 01:45:38;;;;;;;0.00;0.00;;;;;;;2.93;90.91;101786.09;10493700;28;20020;-64
2021/05/08 01:50:38;;;;;;;0.10;0.10;;;;;;;2.88;90.71;101788.13;10493135;28;20086;-63
2021/05/08 01:55:39;;;;;;;0.00;0.00;;;;;;;2.78;91.32;101800.13;10493353;28;20372;-64
2021/05/08 02:00:42;;;;;;;0.10;0.10;;;;;;;2.65;91.01;101790.28;10492855;28;20107;-64
2021/05/08 02:05:45;;;;;;;0.10;0.10;;;;;;;2.56;91.48;101800.44;10493344;28;20479;-63
2021/05/08 02:10:46;;;;;;;0.10;0.10;;;;;;;2.49;91.78;101795.50;10493248;28;20052;-64
2021/05/08 02:15:46;;;;;;;0.10;0.10;;;;;;;2.48;92.25;101788.56;10492882;28;20056;-64
2021/05/08 02:20:47;;;;;;;0.10;0.10;;;;;;;2.44;92.16;101796.69;10492384;28;20018;-63
2021/05/08 02:25:47;;;;;;;0.00;0.00;;;;;;;2.38;91.81;101791.75;10492616;28;20118;-64
2021/05/08 02:30:48;;;;;;;0.00;0.00;;;;;;;2.32;92.31;101794.72;10491230;28;20483;-64
2021/05/08 02:35:48;;;;;;;0.00;0.00;;;;;;;2.37;93.21;101797.97;10492874;28;20024;-64
2021/05/08 02:40:49;;;;;;;0.10;0.10;;;;;;;2.41;92.94;101796.84;10492616;28;20028;-64
2021/05/08 02:45:49;;;;;;;0.00;0.00;;;;;;;2.36;92.48;101802.38;10489294;28;20267;-64
2021/05/08 02:50:49;;;;;;;0.10;0.10;;;;;;;2.32;92.41;101799.97;10492197;28;20074;-64
2021/05/08 02:55:49;;;;;;;0.10;0.10;;;;;;;2.26;92.38;101795.91;10491649;28;20035;-63
2021/05/08 03:00:50;;;;;;;0.00;0.00;;;;;;;2.21;92.31;101798.78;10491301;28;20024;-64
2021/05/08 03:05:50;;;;;;;0.00;0.00;;;;;;;2.11;92.16;101787.03;10491706;28;20030;-63
2021/05/08 03:10:50;;;;;;;0.10;0.10;;;;;;;2.03;92.34;101791.84;10492140;28;20279;-63
2021/05/08 03:15:51;;;;;;;0.10;0.10;;;;;;;2.04;92.85;101790.94;10491788;28;20032;-64
2021/05/08 03:20:51;;;;;;;0.10;0.10;;;;;;;2.08;93.27;101792.47;10491263;28;20027;-64
2021/05/08 03:25:51;;;;;;;0.10;0.10;;;;;;;2.12;93.43;101791.34;10491652;28;20028;-63
2021/05/08 03:30:52;;;;;;;0.00;0.00;;;;;;;2.18;93.15;101795.44;10489284;28;20029;-63
2021/05/08 03:35:52;;;;;;;0.10;0.10;;;;;;;2.23;93.13;101782.91;10490869;28;20103;-64
2021/05/08 03:40:52;;;;;;;0.00;0.00;;;;;;;2.26;92.83;101793.25;10491351;28;20751;-64
2021/05/08 03:45:53;;;;;;;0.10;0.10;;;;;;;2.35;93.07;101794.56;10498791;28;20108;-64
2021/05/08 03:50:53;;;;;;;0.03;0.03;;;;;;;2.60;92.80;101791.47;10497821;28;20031;-63
2021/05/08 03:55:54;;;;;;;0.10;0.10;;;;;;;2.97;91.14;101790.25;10497715;28;20032;-64
2021/05/08 04:00:55;;;;;;;0.00;0.00;;;;;;;3.47;89.83;101797.03;10497061;28;20024;-63
2021/05/08 04:05:55;;;;;;;0.10;0.10;;;;;;;4.17;87.75;101804.31;10497670;28;20017;-64
2021/05/08 04:10:55;;;;;;;0.10;0.10;;;;;;;4.93;84.77;101801.28;10497025;28;20023;-64
2021/05/08 04:15:56;;;;;;;0.00;0.00;;;;;;;5.70;81.17;101804.16;10497305;28;20021;-64
2021/05/08 04:20:56;;;;;;;0.00;0.00;;;;;;;6.53;79.33;101804.59;10496973;28;20021;-63
2021/05/08 04:25:56;;;;;;;0.00;0.00;;;;;;;7.36;75.17;101798.56;10497123;28;20032;-63
2021/05/08 04:30:56;;;;;;;0.00;0.00;;;;;;;8.12;72.62;101810.47;10496209;28;20050;-63
2021/05/08 04:35:57;;;;;;;0.00;0.00;;;;;;;8.72;70.43;101809.25;10496522;28;20017;-63
2021/05/08 04:40:57;;;;;;;0.00;0.00;;;;;;;9.27;68.55;101809.25;10496323;28;20017;-64
2021/05/08 04:45:58;;;;;;;0.07;0.07;;;;;;;9.80;66.07;101811.03;10496153;28;20384;-64
2021/05/08 04:50:58;;;;;;;0.10;0.10;;;;;;;10.33;65.13;101816.28;10496792;28;20486;-64
2021/05/08 04:55:59;;;;;;;0.15;0.15;;;;;;;11.10;62.23;101811.16;10495330;28;20115;-64
2021/05/08 05:00:59;;;;;;;0.10;0.10;;;;;;;11.68;60.53;101805.00;10495474;28;20020;-64
2021/05/08 05:05:59;;;;;;;0.10;0.10;;;;;;;12.40;59.03;101811.59;10495663;28;20286;-65
2021/05/08 05:11:00;;;;;;;0.10;0.10;;;;;;;13.04;56.19;101812.50;10495062;28;20217;-64
2021/05/08 05:16:00;;;;;;;0.10;0.10;;;;;;;13.55;54.94;101815.50;10494621;28;20314;-64
2021/05/08 05:21:00;;;;;;;0.10;0.10;;;;;;;13.90;53.42;101811.09;10494540;28;20259;-64
2021/05/08 05:26:01;;;;;;;0.15;0.15;;;;;;;13.47;53.61;101818.13;10495284;28;20385;-64
2021/05/08 05:31:02;;;;;;;0.10;0.10;;;;;;;11.64;57.53;101818.78;10494902;28;20036;-64
2021/05/08 05:36:02;;;;;;;0.15;0.15;;;;;;;12.25;57.57;101829.09;10494595;28;20024;-65
2021/05/08 05:41:03;;;;;;;0.10;0.10;;;;;;;13.90;54.18;101816.44;10493784;28;20383;-64
2021/05/08 05:46:03;;;;;;;0.10;0.10;;;;;;;14.87;51.69;101816.13;10494594;28;20028;-64
2021/05/08 05:51:04;;;;;;;0.10;0.10;;;;;;;15.69;48.90;101820.78;10493815;28;20017;-65
2021/05/08 05:56:04;;;;;;;0.10;0.10;;;;;;;16.18;47.57;101816.19;10493903;28;20032;-64
2021/05/08 06:01:05;;;;;;;0.10;0.10;;;;;;;16.56;46.89;101820.94;10532832;22;20048;-65
2021/05/08 06:06:05;;;;;;;0.10;0.10;;;;;;;17.00;46.30;101818.56;10529698;28;20024;-65
2021/05/08 06:11:06;;;;;;;0.10;0.10;;;;;;;16.94;45.14;101819.28;10530460;28;20036;-65
2021/05/08 06:16:07;;;;;;;0.10;0.10;;;;;;;16.91;44.71;101823.16;10532963;28;20024;-65
2021/05/08 06:21:07;;;;;;;0.10;0.10;;;;;;;17.28;43.83;101834.19;10532728;28;20379;-65
2021/05/08 06:26:07;;;;;;;0.10;0.10;;;;;;;17.40;44.35;101833.59;10533067;28;20432;-65
2021/05/08 06:31:08;;;;;;;0.10;0.10;;;;;;;17.78;43.15;101827.44;10492586;28;20105;-65
2021/05/08 06:36:08;;;;;;;0.10;0.10;;;;;;;17.70;43.14;101830.19;10499341;28;20016;-65
2021/05/08 06:41:08;;;;;;;0.10;0.10;;;;;;;18.10;43.51;101829.81;10532222;28;20351;-65
2021/05/08 06:46:09;;;;;;;0.10;0.10;;;;;;;18.38;41.28;101834.56;10479529;28;20029;-63
2021/05/08 06:51:09;;;;;;;0.10;0.10;;;;;;;18.55;41.29;101841.44;10473749;28;20083;-65
2021/05/08 06:56:09;;;;;;;0.10;0.10;;;;;;;18.39;42.18;101836.25;10526450;28;20493;-65
2021/05/08 07:01:10;;;;;;;0.10;0.10;;;;;;;18.50;43.71;101843.88;10496200;28;20391;-65
2021/05/08 07:06:10;;;;;;;0.10;0.10;;;;;;;18.62;43.23;101833.44;10490166;28;20050;-65
2021/05/08 07:11:10;;;;;;;0.10;0.10;;;;;;;18.82;40.18;101832.88;10489850;28;20441;-65
2021/05/08 07:16:11;;;;;;;0.10;0.10;;;;;;;18.51;41.56;101837.44;10491309;28;20418;-63
2021/05/08 07:21:11;;;;;;;0.10;0.10;;;;;;;18.86;41.14;101837.72;10512690;28;20016;-63
2021/05/08 07:26:11;;;;;;;0.10;0.10;;;;;;;19.09;40.82;101828.63;10503303;28;20017;-63
2021/05/08 07:31:12;;;;;;;0.10;0.10;;;;;;;18.90;39.25;101833.59;10494883;28;20024;-63
2021/05/08 07:36:12;;;;;;;0.10;0.10;;;;;;;19.04;39.87;101831.06;10495732;28;20095;-63
2021/05/08 07:41:13;;;;;;;0.10;0.10;;;;;;;19.34;40.44;101840.72;10495550;28;20027;-63
2021/05/08 07:46:13;;;;;;;0.10;0.10;;;;;;;19.16;38.95;101827.66;10498103;28;20024;-63
2021/05/08 07:51:14;;;;;;;0.07;0.07;;;;;;;18.86;40.95;101826.91;10497972;28;20036;-63
2021/05/08 07:56:14;;;;;;;0.10;0.10;;;;;;;18.86;40.50;101824.22;10498402;28;20098;-63
2021/05/08 08:01:14;;;;;;;0.10;0.10;;;;;;;19.03;39.58;101818.59;10497377;28;20138;-63
2021/05/08 08:06:15;;;;;;;0.10;0.10;;;;;;;18.95;40.29;101817.69;10497555;28;20036;-63
2021/05/08 08:11:15;;;;;;;0.10;0.10;;;;;;;18.91;39.43;101804.78;10496603;28;20070;-63
2021/05/08 08:16:16;;;;;;;0.10;0.10;;;;;;;18.93;39.75;101810.78;10497489;28;20052;-63
2021/05/08 08:21:16;;;;;;;0.10;0.10;;;;;;;18.58;40.03;101807.84;10496671;28;20100;-62
2021/05/08 08:26:16;;;;;;;0.10;0.10;;;;;;;17.54;40.28;101813.13;10496979;28;20454;-63
2021/05/08 08:31:17;;;;;;;0.10;0.10;;;;;;;17.70;42.32;101814.84;10494856;28;20028;-63
2021/05/08 08:36:17;;;;;;;0.10;0.10;;;;;;;17.91;41.88;101810.63;10495070;28;20020;-62
2021/05/08 08:41:18;;;;;;;0.10;0.10;;;;;;;17.59;42.77;101815.28;10495716;28;20009;-62
2021/05/08 08:46:19;;;;;;;0.10;0.10;;;;;;;17.13;41.35;101816.13;10497494;28;20036;-63
2021/05/08 08:51:19;;;;;;;0.10;0.10;;;;;;;16.80;43.84;101823.53;10495785;28;20035;-63
2021/05/08 08:56:20;;;;;;;0.10;0.10;;;;;;;16.63;43.57;101817.38;10497330;28;20036;-62
2021/05/08 09:01:21;;;;;;;0.10;0.10;;;;;;;16.48;41.94;101816.41;10495604;28;20020;-64
2021/05/08 09:06:21;;;;;;;0.10;0.10;;;;;;;16.16;45.76;101812.00;10495637;28;20028;-64
2021/05/08 09:11:24;;;;;;;0.10;0.10;;;;;;;15.98;44.97;101815.72;10486096;28;20138;-64
2021/05/08 09:16:24;;;;;;;0.10;0.10;;;;;;;15.88;43.13;101814.22;10493536;28;20035;-64
2021/05/08 09:21:29;;;;;;;0.10;0.10;;;;;;;15.56;45.41;101803.31;10493752;28;20021;-64
2021/05/08 09:26:39;;;;;;;0.10;0.10;;;;;;;15.54;44.81;101797.25;10494502;28;20506;-64
2021/05/08 09:31:51;;;;;;;0.10;0.10;;;;;;;15.96;45.04;101785.47;10496735;28;20033;-64
2021/05/08 09:36:53;;;;;;;0.10;0.10;;;;;;;16.25;44.71;101781.38;10518289;28;20016;-66
2021/05/08 09:41:53;;;;;;;0.15;0.15;;;;;;;15.69;43.27;101772.44;10494096;28;20030;-69
2021/05/08 09:46:55;;;;;;;0.10;0.10;;;;;;;15.77;45.74;101781.34;10495439;28;20025;-68
2021/05/08 09:52:00;;;;;;;0.10;0.10;;;;;;;16.38;42.97;101784.38;10490342;28;20510;-66
2021/05/08 09:57:01;;;;;;;0.13;0.13;;;;;;;16.60;45.56;101771.16;10490225;28;20016;-63
2021/05/08 10:02:01;;;;;;;0.20;0.20;;;;;;;16.79;41.10;101765.38;10519905;28;20486;-64
2021/05/08 10:07:08;;;;;;;0.10;0.10;;;;;;;16.33;43.15;101759.03;10510226;28;20020;-64
2021/05/08 10:12:11;;;;;;;0.10;0.10;;;;;;;16.20;43.79;101754.19;10493192;28;20029;-63
2021/05/08 10:17:13;;;;;;;0.10;0.10;;;;;;;16.50;43.93;101736.41;10489418;28;20107;-63
2021/05/08 10:22:14;;;;;;;0.10;0.10;;;;;;;16.33;42.04;101735.66;10493187;28;20028;-64
2021/05/08 10:27:15;;;;;;;0.08;0.08;;;;;;;16.46;42.25;101733.25;10497938;28;20425;-64
2021/05/08 10:32:17;;;;;;;0.10;0.10;;;;;;;16.56;41.59;101726.81;10490526;28;20025;-63
2021/05/08 10:37:18;;;;;;;0.10;0.10;;;;;;;16.59;41.86;101727.28;10489051;28;20402;-63
2021/05/08 10:42:40;;;;;;;0.10;0.10;;;;;;;16.45;41.16;101726.19;10491361;28;20009;-64
2021/05/08 10:47:53;;;;;;;0.10;0.10;;;;;;;16.17;40.29;101716.91;10489322;28;20024;-64
2021/05/08 10:53:11;;;;;;;0.10;0.10;;;;;;;15.86;41.48;101722.22;10505932;28;20111;-63
2021/05/08 10:58:17;;;;;;;0.10;0.10;;;;;;;16.07;45.13;101717.09;10535319;28;20192;-64
2021/05/08 11:03:23;;;;;;;0.10;0.10;;;;;;;16.04;43.23;101698.66;10541028;28;20095;-64
2021/05/08 11:08:27;;;;;;;0.00;0.00;;;;;;;15.88;42.55;101702.22;10540513;28;20129;-64
2021/05/08 11:13:43;;;;;;;0.00;0.00;;;;;;;15.92;45.70;101692.81;10501473;28;20027;-64
2021/05/08 11:18:56;;;;;;;0.10;0.10;;;;;;;15.90;41.50;101691.31;10497790;28;20032;-64
2021/05/08 11:23:58;;;;;;;0.10;0.10;;;;;;;15.94;45.53;101679.19;10498296;28;20024;-64
2021/05/08 11:28:58;;;;;;;0.10;0.10;;;;;;;15.86;42.81;101679.25;10503022;28;20035;-64
2021/05/08 11:34:12;;;;;;;0.10;0.10;;;;;;;15.91;42.34;101666.09;10497793;28;20115;-64
2021/05/08 11:39:18;;;;;;;0.10;0.10;;;;;;;15.76;40.02;101666.81;10496290;28;20387;-63
2021/05/08 11:44:39;;;;;;;0.10;0.10;;;;;;;15.62;40.41;101662.16;10496172;28;20016;-60
2021/05/08 11:49:39;;;;;;;0.10;0.10;;;;;;;15.76;43.30;101650.72;10496310;28;20029;-63
2021/05/08 11:54:43;;;;;;;0.10;0.10;;;;;;;15.92;41.35;101651.69;10497136;28;20403;-62
2021/05/08 11:59:43;;;;;;;0.10;0.10;;;;;;;16.05;41.87;101633.97;10514096;22;20050;-67
2021/05/08 12:04:51;;;;;;;0.10;0.10;;;;;;;16.12;38.95;101626.06;10495913;28;20020;-67
2021/05/08 12:10:10;;;;;;;0.10;0.10;;;;;;;15.88;38.28;101605.50;10495816;28;20025;-67
2021/05/08 12:15:11;;;;;;;0.10;0.10;;;;;;;16.16;42.33;101618.47;10482050;28;20036;-67
2021/05/08 12:20:12;;;;;;;0.10;0.10;;;;;;;16.03;41.20;101608.31;10453593;28;20017;-67
2021/05/08 12:25:14;;;;;;;0.10;0.10;;;;;;;16.14;38.08;101599.00;10454337;28;20021;-67
2021/05/08 12:30:16;;;;;;;0.10;0.10;;;;;;;15.60;39.50;101588.97;10453868;28;20068;-67
2021/05/08 12:35:18;;;;;;;0.10;0.10;;;;;;;15.73;39.99;101591.97;10454199;28;20032;-67
2021/05/08 12:40:30;;;;;;;0.10;0.10;;;;;;;15.44;37.92;101578.28;10453528;28;20013;-67
2021/05/08 12:45:31;;;;;;;0.10;0.10;;;;;;;15.26;36.50;101575.81;10455857;28;20031;-67
2021/05/08 12:50:33;;;;;;;0.10;0.10;;;;;;;15.10;40.29;101565.97;10449780;28;20033;-67
2021/05/08 12:55:35;;;;;;;0.10;0.10;;;;;;;15.29;39.83;101552.16;10451697;28;20041;-67
2021/05/08 13:00:44;;;;;;;0.10;0.10;;;;;;;15.42;39.17;101540.03;10452332;28;20383;-67
2021/05/08 13:05:44;;;;;;;0.10;0.10;;;;;;;15.48;39.84;101544.72;10452531;28;20063;-67
2021/05/08 13:10:47;;;;;;;0.10;0.10;;;;;;;15.32;37.45;101538.38;10452105;28;20437;-67
2021/05/08 13:15:53;;;;;;;0.10;0.10;;;;;;;15.11;39.97;101524.72;10457341;28;20055;-67
2021/05/08 13:20:53;;;;;;;0.10;0.10;;;;;;;15.01;40.62;101529.41;10474495;28;20255;-66
2021/05/08 13:25:54;;;;;;;0.10;0.10;;;;;;;14.97;37.88;101528.09;10492884;28;20030;-67
2021/05/08 13:30:54;;;;;;;0.10;0.10;;;;;;;14.97;39.67;101515.50;10435404;28;20392;-67
2021/05/08 13:35:54;;;;;;;0.10;0.10;;;;;;;14.92;38.96;101505.31;10430144;28;20088;-67
2021/05/08 13:40:55;;;;;;;0.10;0.10;;;;;;;15.15;38.76;101494.69;10456139;28;20024;-66
2021/05/08 13:45:55;;;;;;;0.10;0.10;;;;;;;15.22;40.08;101489.47;10451173;28;20500;-67
2021/05/08 13:50:56;;;;;;;0.10;0.10;;;;;;;15.27;39.94;101483.56;10449589;28;20486;-67
2021/05/08 13:55:56;;;;;;;0.17;0.17;;;;;;;15.22;39.77;101476.03;10451292;28;20032;-67
2021/05/08 14:00:57;;;;;;;0.10;0.10;;;;;;;15.15;40.83;101472.38;10467317;28;20048;-67
2021/05/08 14:05:57;;;;;;;0.10;0.10;;;;;;;15.23;39.74;101456.25;10448663;28;20028;-67
2021/05/08 14:11:00;;;;;;;0.10;0.10;;;;;;;15.22;41.06;101449.22;10458344;28;20016;-67
2021/05/08 14:16:01;;;;;;;0.10;0.10;;;;;;;15.14;40.08;101435.81;10490949;28;20056;-67
2021/05/08 14:21:01;;;;;;;0.10;0.10;;;;;;;14.83;39.59;101416.97;10490298;28;20297;-67
2021/05/08 14:26:01;;;;;;;0.10;0.10;;;;;;;14.37;39.70;101416.72;10490024;28;20345;-67
2021/05/08 14:31:02;;;;;;;0.10;0.10;;;;;;;14.07;41.07;101419.09;10490087;28;20025;-67
2021/05/08 14:36:02;;;;;;;0.10;0.10;;;;;;;13.93;42.12;101420.59;10460607;28;20056;-67
2021/05/08 14:41:02;;;;;;;0.10;0.10;;;;;;;13.89;43.31;101418.41;10407658;28;20052;-66
2021/05/08 14:46:03;;;;;;;0.10;0.10;;;;;;;13.93;44.90;101409.91;10446588;28;20025;-67
2021/05/08 14:51:04;;;;;;;0.20;0.20;;;;;;;14.00;42.06;101396.66;10447559;28;20013;-67
2021/05/08 14:56:05;;;;;;;0.10;0.10;;;;;;;13.89;41.17;101384.44;10448984;28;20072;-66
2021/05/08 15:01:06;;;;;;;0.10;0.10;;;;;;;13.79;42.68;101392.66;10446786;28;20561;-66
2021/05/08 15:06:06;;;;;;;0.10;0.10;;;;;;;13.52;40.41;101390.25;10470819;28;20024;-66
2021/05/08 15:11:07;;;;;;;0.10;0.10;;;;;;;13.42;44.52;101385.06;10464686;28;20056;-67
2021/05/08 15:16:07;;;;;;;0.10;0.10;;;;;;;13.33;45.02;101372.66;10448797;28;20020;-66
2021/05/08 15:21:07;;;;;;;0.10;0.10;;;;;;;13.19;44.69;101379.44;10447776;28;20025;-66
2021/05/08 15:26:08;;;;;;;0.10;0.10;;;;;;;13.10;45.99;101378.59;10444838;28;20021;-67
2021/05/08 15:31:08;;;;;;;0.10;0.10;;;;;;;12.99;41.75;101373.53;10449312;28;20037;-67
2021/05/08 15:36:09;;;;;;;0.10;0.10;;;;;;;12.97;46.87;101378.19;10448729;28;20276;-67
2021/05/08 15:41:09;;;;;;;0.20;0.20;;;;;;;12.92;44.54;101377.84;10456701;28;20017;-67
2021/05/08 15:46:10;;;;;;;0.10;0.10;;;;;;;12.84;43.97;101359.09;10457668;28;20036;-66
2021/05/08 15:51:13;;;;;;;0.10;0.10;;;;;;;12.84;45.55;101353.75;10454720;28;20472;-66
2021/05/08 15:56:14;;;;;;;0.10;0.10;;;;;;;12.71;47.76;101348.84;10456925;28;20314;-66
2021/05/08 16:01:14;;;;;;;0.10;0.10;;;;;;;12.59;49.73;101350.13;10455929;28;20075;-66
2021/05/08 16:06:17;;;;;;;0.10;0.10;;;;;;;12.40;50.05;101354.72;10456499;28;20269;-66
2021/05/08 16:11:17;;;;;;;0.10;0.10;;;;;;;12.27;50.60;101342.78;10454736;28;20518;-66
2021/05/08 16:16:17;;;;;;;0.10;0.10;;;;;;;12.21;51.98;101355.75;10455948;28;20087;-66
2021/05/08 16:21:18;;;;;;;0.10;0.10;;;;;;;12.15;51.45;101344.88;10455132;28;20024;-66
2021/05/08 16:26:19;;;;;;;0.17;0.17;;;;;;;12.15;50.88;101345.69;10454290;28;20021;-66
2021/05/08 16:31:19;;;;;;;0.10;0.10;;;;;;;12.16;52.29;101339.38;10455079;28;20036;-66
2021/05/08 16:36:19;;;;;;;0.10;0.10;;;;;;;12.11;51.54;101347.03;10455467;28;20566;-66
2021/05/08 16:41:19;;;;;;;0.10;0.10;;;;;;;12.05;53.13;101339.63;10454790;28;20025;-66
2021/05/08 16:46:20;;;;;;;0.10;0.10;;;;;;;11.94;52.61;101342.56;10452252;28;20078;-66
2021/05/08 16:51:20;;;;;;;0.10;0.10;;;;;;;11.87;54.07;101330.81;10455260;28;20043;-66
2021/05/08 16:56:20;;;;;;;0.10;0.10;;;;;;;11.78;53.86;101333.41;10456506;28;20115;-66
2021/05/08 17:01:21;;;;;;;0.10;0.10;;;;;;;11.71;55.13;101339.50;10452080;28;20081;-66
2021/05/08 17:06:21;;;;;;;0.10;0.10;;;;;;;11.56;57.08;101318.69;10452645;28;20015;-66
2021/05/08 17:11:21;;;;;;;0.10;0.10;;;;;;;11.42;57.44;101311.22;10451918;28;20029;-66
2021/05/08 17:16:25;;;;;;;0.10;0.10;;;;;;;11.33;57.89;101317.47;10451973;28;20401;-66
2021/05/08 17:21:25;;;;;;;0.13;0.13;;;;;;;11.19;59.18;101316.16;10451036;28;20471;-66
2021/05/08 17:26:26;;;;;;;0.10;0.10;;;;;;;11.02;61.01;101317.00;10459132;28;20107;-66
2021/05/08 17:31:26;;;;;;;0.10;0.10;;;;;;;10.80;62.48;101321.75;10476140;28;20021;-66
2021/05/08 17:36:27;;;;;;;0.10;0.10;;;;;;;10.66;63.99;101314.25;10474022;28;20036;-66
2021/05/08 17:41:28;;;;;;;0.10;0.10;;;;;;;10.55;65.81;101315.28;10476007;28;20020;-66
2021/05/08 17:46:29;;;;;;;0.00;0.00;;;;;;;10.38;66.20;101308.91;10475294;28;20024;-66
2021/05/08 17:51:29;;;;;;;0.10;0.10;;;;;;;10.21;68.04;101304.31;10472696;28;20017;-66
2021/05/08 17:56:29;;;;;;;0.10;0.10;;;;;;;10.05;69.90;101307.56;10467698;28;20016;-66
2021/05/08 18:01:31;;;;;;;0.10;0.10;;;;;;;9.88;70.43;101303.00;10480375;28;20067;-66
2021/05/08 18:06:31;;;;;;;0.10;0.10;;;;;;;9.74;71.78;101296.28;10522944;22;20036;-61
2021/05/08 18:11:32;;;;;;;0.10;0.10;;;;;;;9.56;73.76;101300.66;10506171;28;20422;-61
2021/05/08 18:16:32;;;;;;;0.10;0.10;;;;;;;9.40;74.88;101306.53;10488316;28;20028;-61
2021/05/08 18:21:32;;;;;;;0.10;0.10;;;;;;;9.22;76.94;101311.69;10486629;28;20051;-61
2021/05/08 18:26:33;;;;;;;0.10;0.10;;;;;;;9.03;77.73;101302.72;10493407;28;20271;-61
2021/05/08 18:31:35;;;;;;;0.10;0.10;;;;;;;8.89;78.12;101297.78;10492124;28;20036;-61
2021/05/08 18:36:36;;;;;;;0.10;0.10;;;;;;;8.78;79.31;101301.41;10492761;28;20020;-61
2021/05/08 18:41:36;;;;;;;0.00;0.00;;;;;;;8.70;79.67;101290.63;10492062;28;20483;-61
2021/05/08 18:46:37;;;;;;;0.03;0.03;;;;;;;8.60;79.16;101269.34;10492249;28;20028;-61
2021/05/08 18:51:37;;;;;;;0.10;0.10;;;;;;;8.63;79.10;101275.38;10491396;28;20029;-61
2021/05/08 18:56:37;;;;;;;0.00;0.00;;;;;;;8.58;79.33;101263.34;10491846;28;20496;-63
2021/05/08 19:01:38;;;;;;;0.10;0.10;;;;;;;8.55;79.48;101270.72;10499269;28;20486;-62
2021/05/08 19:06:38;;;;;;;0.07;0.07;;;;;;;8.50;81.03;101263.19;10509927;28;20498;-62
2021/05/08 19:11:42;;;;;;;0.10;0.10;;;;;;;8.44;80.88;101255.75;10490111;28;20107;-62
2021/05/08 19:16:42;;;;;;;0.10;0.10;;;;;;;8.43;81.45;101255.88;10498547;28;20020;-62
2021/05/08 19:21:43;;;;;;;0.10;0.10;;;;;;;8.39;81.59;101237.56;10497015;28;20024;-62
2021/05/08 19:26:43;;;;;;;0.10;0.10;;;;;;;8.35;81.50;101227.34;10498529;28;20020;-62
2021/05/08 19:31:43;;;;;;;0.10;0.10;;;;;;;8.28;82.89;101202.28;10496103;28;20078;-62
2021/05/08 19:36:44;;;;;;;0.03;0.03;;;;;;;8.23;83.17;101200.06;10502351;28;20016;-62
2021/05/08 19:41:44;;;;;;;0.10;0.10;;;;;;;8.18;82.94;101185.50;10498275;28;20315;-63
2021/05/08 19:46:44;;;;;;;0.10;0.10;;;;;;;8.16;82.90;101167.91;10508908;28;20046;-62
2021/05/08 19:51:45;;;;;;;0.00;0.00;;;;;;;8.18;83.44;101174.91;10496322;28;20017;-62
2021/05/08 19:56:45;;;;;;;0.00;0.00;;;;;;;8.14;83.32;101167.22;10497667;28;20024;-65
2021/05/08 20:01:45;;;;;;;0.00;0.00;;;;;;;8.10;82.98;101160.47;10496537;28;20494;-64
2021/05/08 20:06:46;;;;;;;0.10;0.10;;;;;;;8.07;84.16;101160.75;10496553;28;20032;-64
2021/05/08 20:11:46;;;;;;;0.00;0.00;;;;;;;8.06;83.57;101142.34;10497087;28;20060;-64
2021/05/08 20:16:46;;;;;;;0.00;0.00;;;;;;;8.04;84.13;101142.44;10494399;28;20017;-64
2021/05/08 20:21:46;;;;;;;0.00;0.00;;;;;;;7.98;85.39;101131.53;10533204;28;20016;-65
2021/05/08 20:26:47;;;;;;;0.05;0.05;;;;;;;7.92;85.54;101117.84;10536238;28;20081;-65
2021/05/08 20:31:47;;;;;;;0.00;0.00;;;;;;;7.89;86.52;101111.97;10504050;28;20024;-65
2021/05/08 20:36:48;;;;;;;0.00;0.00;;;;;;;7.85;86.28;101092.84;10493975;28;20021;-64
2021/05/08 20:41:49;;;;;;;0.00;0.00;;;;;;;7.83;86.71;101086.00;10494867;28;20028;-65
2021/05/08 20:46:49;;;;;;;0.00;0.00;;;;;;;7.81;87.59;101082.63;10511072;28;20019;-65
2021/05/08 20:51:49;;;;;;;0.00;0.00;;;;;;;7.77;87.76;101070.63;10503922;28;20020;-64
2021/05/08 20:56:51;;;;;;;0.00;0.00;;;;;;;7.71;88.46;101062.22;10494461;28;20077;-65
2021/05/08 21:01:51;;;;;;;0.00;0.00;;;;;;;7.68;88.15;101054.53;10493949;28;20482;-65
2021/05/08 21:06:52;;;;;;;0.00;0.00;;;;;;;7.66;89.29;101053.84;10528261;28;20016;-65
2021/05/08 21:11:53;;;;;;;0.00;0.00;;;;;;;7.66;89.59;101048.53;10523387;28;20113;-65
2021/05/08 21:16:53;;;;;;;0.00;0.00;;;;;;;7.60;90.36;101038.47;10508192;28;20020;-65
2021/05/08 21:21:53;;;;;;;0.00;0.00;;;;;;;7.59;90.83;101027.97;10534723;28;20275;-65
2021/05/08 21:26:54;;;;;;;0.00;0.00;;;;;;;7.56;91.41;101023.78;10534925;28;20250;-65
2021/05/08 21:31:54;;;;;;;0.00;0.00;;;;;;;7.56;91.15;101007.88;10534123;28;20278;-65
2021/05/08 21:36:54;;;;;;;0.00;0.00;;;;;;;7.61;91.02;101002.19;10524898;28;20024;-66
2021/05/08 21:41:55;;;;;;;0.00;0.00;;;;;;;7.64;90.44;100994.78;10506489;28;20107;-65
2021/05/08 21:46:55;;;;;;;0.00;0.00;;;;;;;7.68;90.45;100974.19;10491761;28;20262;-65
2021/05/08 21:51:55;;;;;;;0.00;0.00;;;;;;;7.78;89.98;100972.38;10526280;28;20686;-65
2021/05/08 21:56:55;;;;;;;0.00;0.00;;;;;;;7.83;90.51;100985.22;10507515;28;20737;-65
2021/05/08 22:01:58;;;;;;;0.00;0.00;;;;;;;7.87;90.03;100991.91;10491537;28;20012;-64
2021/05/08 22:06:58;;;;;;;0.10;0.10;;;;;;;7.92;89.73;100982.56;10489179;28;20031;-64
2021/05/08 22:11:59;;;;;;;0.00;0.00;;;;;;;7.97;89.16;100976.88;10517122;28;20020;-64
2021/05/08 22:16:59;;;;;;;0.00;0.00;;;;;;;8.03;89.30;100975.44;10497017;28;20017;-64
2021/05/08 22:22:00;;;;;;;0.00;0.00;;;;;;;8.07;89.24;100977.69;10507223;28;20455;-64
2021/05/08 22:27:00;;;;;;;0.10;0.10;;;;;;;8.08;89.39;100955.47;10522173;28;20439;-64
2021/05/08 22:32:01;;;;;;;0.10;0.10;;;;;;;8.11;88.96;100960.50;10529058;28;20474;-64
2021/05/08 22:37:02;;;;;;;0.00;0.00;;;;;;;8.14;88.57;100960.25;10521656;28;20016;-64
2021/05/08 22:42:06;;;;;;;0.00;0.00;;;;;;;8.18;88.48;100963.47;10516891;28;20091;-65
2021/05/08 22:47:06;;;;;;;0.00;0.00;;;;;;;8.22;88.07;100948.09;10530690;28;20022;-65
2021/05/08 22:52:06;;;;;;;0.00;0.00;;;;;;;8.24;87.91;100949.63;10520627;28;20107;-64
2021/05/08 22:57:07;;;;;;;0.00;0.00;;;;;;;8.26;88.36;100937.06;10532041;28;20518;-64
2021/05/08 23:02:07;;;;;;;0.00;0.00;;;;;;;8.26;87.68;100915.84;10515371;28;20020;-64
2021/05/08 23:07:08;;;;;;;0.00;0.00;;;;;;;8.38;86.93;100908.53;10490157;28;20032;-63
2021/05/08 23:12:08;;;;;;;0.00;0.00;;;;;;;8.52;86.67;100901.97;10506001;28;20302;-64